createdAt,value
2018-12-05T00:01:49.083Z,-2.10
2018-12-05T00:04:21.719Z,-2.20
2018-12-05T00:07:00.191Z,-2.30
2018-12-05T00:09:29.975Z,-2.40
2018-12-05T00:12:00.684Z,-2.40
2018-12-05T00:14:31.435Z,-2.40
2018-12-05T00:17:01.267Z,-2.50
2018-12-05T00:19:30.099Z,-2.60
2018-12-05T00:21:58.959Z,-2.60
2018-12-05T00:24:31.179Z,-2.60
2018-12-05T00:27:00.967Z,-2.70
2018-12-05T00:29:33.551Z,-2.60
2018-12-05T00:32:03.443Z,-2.50
2018-12-05T00:34:45.440Z,-2.20
2018-12-05T00:37:15.622Z,-2.10
2018-12-05T00:39:45.411Z,-2.10
2018-12-05T00:42:27.423Z,-2.00
2018-12-05T00:44:56.215Z,-1.90
2018-12-05T00:47:29.418Z,-1.90
2018-12-05T00:49:58.243Z,-1.90
2018-12-05T00:52:32.166Z,-1.90
2018-12-05T00:55:05.986Z,-1.90
2018-12-05T00:57:34.825Z,-1.80
2018-12-05T01:00:05.522Z,-1.80
2018-12-05T01:02:34.327Z,-1.80
2018-12-05T01:05:08.816Z,-1.90
2018-12-05T01:07:37.683Z,-2.00
2018-12-05T01:10:07.647Z,-2.20
2018-12-05T01:12:36.455Z,-2.20
2018-12-05T01:15:06.311Z,-2.30
2018-12-05T01:17:51.711Z,-2.40
2018-12-05T01:20:32.427Z,-2.50
2018-12-05T01:23:20.007Z,-2.60
2018-12-05T01:25:54.379Z,-2.70
2018-12-05T01:28:27.090Z,-2.70
2018-12-05T01:30:55.919Z,-2.80
2018-12-05T01:33:28.467Z,-2.70
2018-12-05T01:35:57.267Z,-2.60
2018-12-05T01:38:27.067Z,-2.50
2018-12-05T01:41:21.031Z,-2.40
2018-12-05T01:43:58.495Z,-2.30
2018-12-05T01:46:33.815Z,-2.10
2018-12-05T01:49:04.599Z,-1.90
2018-12-05T01:51:37.076Z,-1.80
2018-12-05T01:54:05.891Z,-1.60
2018-12-05T01:56:34.734Z,-1.50
2018-12-05T01:59:04.491Z,-1.40
2018-12-05T02:01:35.367Z,-1.40
2018-12-05T02:04:07.632Z,-1.40
2018-12-05T02:06:44.162Z,-1.40
2018-12-05T02:09:14.015Z,-1.40
2018-12-05T02:11:43.747Z,-1.30
2018-12-05T02:14:14.607Z,-1.30
2018-12-05T02:16:51.935Z,-1.30
2018-12-05T02:19:20.776Z,-1.30
2018-12-05T02:21:51.517Z,-1.20
2018-12-05T02:24:21.303Z,-1.20
2018-12-05T02:26:54.667Z,-1.20
2018-12-05T02:29:37.539Z,-1.10
2018-12-05T02:32:10.097Z,-1.10
2018-12-05T02:34:39.896Z,-1.10
2018-12-05T02:37:09.775Z,-1.10
2018-12-05T02:39:39.523Z,-1.00
2018-12-05T02:42:15.687Z,-1.00
2018-12-05T02:44:44.483Z,-0.90
2018-12-05T02:47:13.312Z,-0.80
2018-12-05T02:49:46.207Z,-0.70
2018-12-05T02:52:15.054Z,-0.70
2018-12-05T02:54:44.858Z,-0.70
2018-12-05T02:57:13.693Z,-0.60
2018-12-05T02:59:42.544Z,-0.60
2018-12-05T03:02:12.369Z,-0.50
2018-12-05T03:04:41.239Z,-0.40
2018-12-05T03:07:11.031Z,-0.30
2018-12-05T03:09:46.452Z,-0.20
2018-12-05T03:12:15.287Z,-0.10
2018-12-05T03:14:44.091Z,-0.10
2018-12-05T03:17:12.944Z,0.00
2018-12-05T03:19:41.777Z,0.10
2018-12-05T03:22:10.635Z,0.10
2018-12-05T03:24:40.451Z,0.20
2018-12-05T03:27:14.067Z,0.20
2018-12-05T03:29:43.881Z,0.30
2018-12-05T03:32:19.144Z,0.20
2018-12-05T03:34:49.946Z,0.10
2018-12-05T03:37:19.759Z,0.00
2018-12-05T03:39:48.586Z,0.00
2018-12-05T03:42:19.438Z,-0.10
2018-12-05T03:44:49.192Z,-0.20
2018-12-05T03:50:01.969Z,-0.30
2018-12-05T03:52:31.848Z,-0.40
2018-12-05T03:55:00.650Z,-0.50
2018-12-05T03:57:29.504Z,-0.50
2018-12-05T03:59:59.326Z,-0.60
2018-12-05T04:02:32.396Z,-0.60
2018-12-05T04:05:03.775Z,-0.70
2018-12-05T04:07:44.511Z,-0.70
2018-12-05T04:10:14.364Z,-0.70
2018-12-05T04:12:44.139Z,-0.70
2018-12-05T04:15:15.031Z,-0.80
2018-12-05T04:17:44.792Z,-0.80
2018-12-05T04:20:14.614Z,-0.80
2018-12-05T04:22:44.423Z,-0.80
2018-12-05T04:25:13.211Z,-0.90
2018-12-05T04:27:42.996Z,-0.80
2018-12-05T04:30:11.887Z,-0.90
2018-12-05T04:32:41.714Z,-1.00
2018-12-05T04:35:12.585Z,-1.00
2018-12-05T04:37:42.344Z,-1.10
2018-12-05T04:40:11.135Z,-1.00
2018-12-05T04:42:43.881Z,-1.10
2018-12-05T04:45:13.812Z,-1.20
2018-12-05T04:47:47.344Z,-1.30
2018-12-05T04:50:17.171Z,-1.40
2018-12-05T04:52:45.975Z,-1.50
2018-12-05T04:55:16.798Z,-1.60
2018-12-05T04:57:45.764Z,-1.70
2018-12-05T05:00:17.948Z,-1.60
2018-12-05T05:02:50.704Z,-1.30
2018-12-05T05:05:23.592Z,-1.00
2018-12-05T05:07:52.432Z,-0.70
2018-12-05T05:10:21.435Z,-0.60
2018-12-05T05:12:51.203Z,-0.60
2018-12-05T05:15:23.332Z,-0.60
2018-12-05T05:17:56.048Z,-0.60
2018-12-05T05:20:25.847Z,-0.50
2018-12-05T05:22:55.656Z,-0.40
2018-12-05T05:25:29.244Z,-0.40
2018-12-05T05:27:58.085Z,-0.30
2018-12-05T05:30:28.892Z,-0.30
2018-12-05T05:33:03.184Z,-0.30
2018-12-05T05:35:31.975Z,-0.30
2018-12-05T05:38:06.067Z,-0.30
2018-12-05T05:40:35.812Z,-0.30
2018-12-05T05:43:05.632Z,-0.20
2018-12-05T05:45:40.820Z,-0.20
2018-12-05T05:48:11.596Z,-0.20
2018-12-05T05:50:43.696Z,-0.20
2018-12-05T05:53:14.476Z,-0.20
2018-12-05T05:55:43.284Z,-0.30
2018-12-05T05:58:13.068Z,-0.30
2018-12-05T06:00:41.952Z,-0.40
2018-12-05T06:03:19.253Z,-0.40
2018-12-05T06:05:51.216Z,-0.40
2018-12-05T06:08:21.029Z,-0.40
2018-12-05T06:10:54.544Z,-0.40
2018-12-05T06:13:24.344Z,-0.40
2018-12-05T06:15:53.177Z,-0.40
2018-12-05T06:18:30.320Z,-0.40
2018-12-05T06:20:59.125Z,-0.30
2018-12-05T06:23:29.932Z,-0.20
2018-12-05T06:26:04.225Z,-0.10
2018-12-05T06:28:35.027Z,0.00
2018-12-05T06:31:04.904Z,0.10
2018-12-05T06:33:36.945Z,0.10
2018-12-05T06:36:33.208Z,0.20
2018-12-05T06:39:04.629Z,0.20
2018-12-05T06:41:40.148Z,0.20
2018-12-05T06:44:14.898Z,0.30
2018-12-05T06:46:45.776Z,0.30
2018-12-05T06:49:14.644Z,0.30
2018-12-05T06:51:44.480Z,0.30
2018-12-05T06:54:14.265Z,0.30
2018-12-05T06:56:43.089Z,0.30
2018-12-05T06:59:11.928Z,0.30
2018-12-05T07:01:42.840Z,0.30
2018-12-05T07:04:12.716Z,0.30
2018-12-05T07:06:43.533Z,0.30
2018-12-05T07:09:12.366Z,0.30
2018-12-05T07:11:42.160Z,0.30
2018-12-05T07:14:12.944Z,0.30
2018-12-05T07:16:45.024Z,0.30
2018-12-05T07:19:13.848Z,0.30
2018-12-05T07:21:42.728Z,0.40
2018-12-05T07:24:11.585Z,0.40
2018-12-05T07:26:40.384Z,0.40
2018-12-05T07:29:12.534Z,0.40
2018-12-05T07:31:42.405Z,0.50
2018-12-05T07:34:11.972Z,0.50
2018-12-05T07:36:40.888Z,0.70
2018-12-05T07:39:16.108Z,1.30
2018-12-05T07:41:45.954Z,1.90
2018-12-05T07:44:17.765Z,2.00
2018-12-05T07:46:47.579Z,1.60
2018-12-05T07:49:16.440Z,1.40
2018-12-05T07:51:45.336Z,1.20
2018-12-05T07:54:14.163Z,1.20
2018-12-05T07:56:43.888Z,1.10
2018-12-05T07:59:14.676Z,1.10
2018-12-05T08:01:43.469Z,1.10
2018-12-05T08:04:12.305Z,1.10
2018-12-05T08:06:42.093Z,1.10
2018-12-05T08:09:25.117Z,1.10
2018-12-05T08:11:57.495Z,1.20
2018-12-05T08:14:27.212Z,1.20
2018-12-05T08:17:26.596Z,1.20
2018-12-05T08:20:04.712Z,1.30
2018-12-05T08:22:42.396Z,1.50
2018-12-05T08:25:11.267Z,1.60
2018-12-05T08:27:40.085Z,1.80
2018-12-05T08:30:16.735Z,2.20
2018-12-05T08:32:46.511Z,2.80
2018-12-05T08:35:16.936Z,3.30
2018-12-05T08:37:47.675Z,3.10
2018-12-05T08:40:17.383Z,2.80
2018-12-05T08:42:59.563Z,2.50
2018-12-05T08:45:45.087Z,2.20
2018-12-05T08:48:41.895Z,2.10
2018-12-05T08:51:10.723Z,2.00
2018-12-05T08:53:39.595Z,1.90
2018-12-05T08:56:08.435Z,1.90
2018-12-05T08:58:37.211Z,1.90
2018-12-05T09:01:06.159Z,1.90
2018-12-05T09:03:34.956Z,2.00
2018-12-05T09:06:03.864Z,2.00
2018-12-05T09:08:32.699Z,2.10
2018-12-05T09:11:02.503Z,2.20
2018-12-05T09:13:31.383Z,2.20
2018-12-05T09:16:00.203Z,2.30
2018-12-05T09:18:29.083Z,2.40
2018-12-05T09:20:57.875Z,2.50
2018-12-05T09:23:26.775Z,2.60
2018-12-05T09:25:55.636Z,2.70
2018-12-05T09:28:25.422Z,2.80
2018-12-05T09:30:55.251Z,2.80
2018-12-05T09:33:24.085Z,2.80
2018-12-05T09:35:52.908Z,2.90
2018-12-05T09:38:21.731Z,2.90
2018-12-05T09:40:50.600Z,2.90
2018-12-05T09:43:19.447Z,2.90
2018-12-05T09:45:48.324Z,2.90
2018-12-05T09:48:17.132Z,2.80
2018-12-05T09:50:45.963Z,2.80
2018-12-05T09:53:14.795Z,2.90
2018-12-05T09:55:43.608Z,3.00
2018-12-05T09:58:12.474Z,3.00
2018-12-05T10:00:41.599Z,3.00
2018-12-05T10:03:10.423Z,3.00
2018-12-05T10:05:39.300Z,3.10
2018-12-05T10:08:08.151Z,3.10
2018-12-05T10:10:43.988Z,3.20
2018-12-05T10:13:12.849Z,3.10
2018-12-05T10:15:41.683Z,3.10
2018-12-05T10:18:10.503Z,3.10
2018-12-05T10:20:39.379Z,3.10
2018-12-05T10:23:08.251Z,3.10
2018-12-05T10:25:37.079Z,3.10
2018-12-05T10:28:05.842Z,3.20
2018-12-05T10:30:36.535Z,3.20
2018-12-05T10:33:05.357Z,3.20
2018-12-05T10:35:36.119Z,3.20
2018-12-05T10:38:05.091Z,3.20
2018-12-05T10:40:33.951Z,3.20
2018-12-05T10:43:02.792Z,3.20
2018-12-05T10:45:31.699Z,3.10
2018-12-05T10:48:02.458Z,3.10
2018-12-05T10:50:31.303Z,3.10
2018-12-05T10:53:01.118Z,3.10
2018-12-05T10:55:30.903Z,3.10
2018-12-05T10:57:59.774Z,3.10
2018-12-05T11:00:34.274Z,3.10
2018-12-05T11:03:08.658Z,3.10
2018-12-05T11:05:43.078Z,3.10
2018-12-05T11:08:17.514Z,3.20
2018-12-05T11:10:51.942Z,3.20
2018-12-05T11:13:26.234Z,3.20
2018-12-05T11:16:02.914Z,3.30
2018-12-05T11:18:37.166Z,3.40
2018-12-05T11:21:12.567Z,3.50
2018-12-05T11:23:47.586Z,3.50
2018-12-05T11:26:18.414Z,3.50
2018-12-05T11:28:48.218Z,3.50
2018-12-05T11:31:40.834Z,3.50
2018-12-05T11:34:11.534Z,3.60
2018-12-05T11:39:43.502Z,3.50
2018-12-05T11:42:12.402Z,3.50
2018-12-05T11:44:41.218Z,3.50
2018-12-05T11:47:10.066Z,3.60
2018-12-05T11:49:38.903Z,3.50
2018-12-05T11:52:24.873Z,3.50
2018-12-05T11:54:54.610Z,3.40
2018-12-05T11:57:40.061Z,3.30
2018-12-05T12:00:14.370Z,3.20
2018-12-05T12:02:43.150Z,3.10
2018-12-05T12:05:17.718Z,3.10
2018-12-05T12:07:47.547Z,3.00
2018-12-05T12:10:23.535Z,3.00
2018-12-05T12:15:55.787Z,3.00
2018-12-05T12:18:24.903Z,3.10
2018-12-05T12:21:06.509Z,3.10
2018-12-05T12:23:43.406Z,3.10
2018-12-05T12:26:33.286Z,3.10
2018-12-05T12:29:07.267Z,3.00
2018-12-05T12:31:36.143Z,3.00
2018-12-05T12:34:05.007Z,3.00
2018-12-05T12:36:33.827Z,3.10
2018-12-05T12:39:06.971Z,3.00
2018-12-05T12:41:39.455Z,2.90
2018-12-05T12:44:17.935Z,2.90
2018-12-05T12:46:50.035Z,2.90
2018-12-05T12:49:29.339Z,2.90
2018-12-05T12:51:58.150Z,2.80
2018-12-05T12:54:27.875Z,2.80
2018-12-05T12:56:59.808Z,2.80
2018-12-05T12:59:34.595Z,2.80
2018-12-05T13:02:07.315Z,2.80
2018-12-05T13:04:36.095Z,2.80
2018-12-05T13:07:12.392Z,2.70
2018-12-05T13:09:42.220Z,2.80
2018-12-05T13:12:13.875Z,2.70
2018-12-05T13:14:43.671Z,2.80
2018-12-05T13:17:14.403Z,2.70
2018-12-05T13:19:47.424Z,2.70
2018-12-05T13:22:41.355Z,2.70
2018-12-05T13:25:11.063Z,2.80
2018-12-05T13:27:43.803Z,2.80
2018-12-05T13:30:13.572Z,2.80
2018-12-05T13:32:44.415Z,2.80
2018-12-05T13:35:13.412Z,2.80
2018-12-05T13:37:44.150Z,2.80
2018-12-05T13:40:25.675Z,2.80
2018-12-05T13:42:55.447Z,2.80
2018-12-05T13:45:25.364Z,2.80
2018-12-05T13:47:54.209Z,2.80
2018-12-05T13:50:24.996Z,2.80
2018-12-05T13:52:53.856Z,2.70
2018-12-05T13:55:22.844Z,2.80
2018-12-05T13:57:57.016Z,2.70
2018-12-05T14:00:26.840Z,2.70
2018-12-05T14:02:59.268Z,2.70
2018-12-05T14:05:28.104Z,2.80
2018-12-05T14:08:07.500Z,2.80
2018-12-05T14:10:41.484Z,2.80
2018-12-05T14:13:10.383Z,2.80
2018-12-05T14:15:40.180Z,2.80
2018-12-05T14:18:14.660Z,2.80
2018-12-05T14:20:43.497Z,2.80
2018-12-05T14:23:12.333Z,2.70
2018-12-05T14:25:42.100Z,2.80
2018-12-05T14:28:10.930Z,2.70
2018-12-05T14:30:39.784Z,2.70
2018-12-05T14:33:09.506Z,2.70
2018-12-05T14:35:38.356Z,2.70
2018-12-05T14:38:08.180Z,2.60
2018-12-05T14:40:42.732Z,2.60
2018-12-05T14:43:15.588Z,2.60
2018-12-05T14:45:48.196Z,2.50
2018-12-05T14:48:17.982Z,2.50
2018-12-05T14:50:48.912Z,2.50
2018-12-05T14:53:17.763Z,2.50
2018-12-05T14:55:59.385Z,2.40
2018-12-05T14:58:28.177Z,2.40
2018-12-05T15:01:00.336Z,2.40
2018-12-05T15:03:29.144Z,2.40
2018-12-05T15:05:58.868Z,2.40
2018-12-05T15:08:27.665Z,2.30
2018-12-05T15:10:57.248Z,2.30
2018-12-05T15:13:26.104Z,2.30
2018-12-05T15:16:00.700Z,2.30
2018-12-05T15:18:30.188Z,2.30
2018-12-05T15:21:17.589Z,2.20
2018-12-05T15:23:51.657Z,2.20
2018-12-05T15:26:29.765Z,2.20
2018-12-05T15:29:06.169Z,2.20
2018-12-05T15:31:35.001Z,2.20
2018-12-05T15:34:34.372Z,2.20
2018-12-05T15:37:14.513Z,2.20
2018-12-05T15:39:43.333Z,2.20
2018-12-05T15:42:28.592Z,2.20
2018-12-05T15:45:06.769Z,2.10
2018-12-05T15:47:42.157Z,2.10
2018-12-05T15:50:24.357Z,2.10
2018-12-05T15:52:53.201Z,2.10
2018-12-05T15:55:34.248Z,2.00
2018-12-05T15:58:06.645Z,2.00
2018-12-05T16:00:42.597Z,2.00
2018-12-05T16:03:15.137Z,2.00
2018-12-05T16:05:49.861Z,2.00
2018-12-05T16:08:22.001Z,2.00
2018-12-05T16:10:51.817Z,2.00
2018-12-05T16:13:38.006Z,2.00
2018-12-05T16:16:08.705Z,1.90
2018-12-05T16:18:37.533Z,1.90
2018-12-05T16:21:10.825Z,1.90
2018-12-05T16:23:39.665Z,1.90
2018-12-05T16:26:10.798Z,1.90
2018-12-05T16:28:40.681Z,1.90
2018-12-05T16:31:13.669Z,1.90
2018-12-05T16:33:43.425Z,1.90
2018-12-05T16:36:15.093Z,1.90
2018-12-05T16:38:45.948Z,1.80
2018-12-05T16:41:15.721Z,1.90
2018-12-05T16:43:45.549Z,1.80
2018-12-05T16:46:37.069Z,1.80
2018-12-05T16:49:16.950Z,1.80
2018-12-05T16:52:04.938Z,1.90
2018-12-05T16:54:36.037Z,1.90
2018-12-05T17:00:10.397Z,1.90
2018-12-05T17:02:46.693Z,1.80
2018-12-05T17:05:19.729Z,1.80
2018-12-05T17:07:48.657Z,1.80
2018-12-05T17:10:17.437Z,1.80
2018-12-05T17:12:46.304Z,1.80
2018-12-05T17:15:15.177Z,1.80
2018-12-05T17:17:45.969Z,1.80
2018-12-05T17:20:14.905Z,1.80
2018-12-05T17:22:43.713Z,1.80
2018-12-05T17:25:40.917Z,1.80
2018-12-05T17:28:13.572Z,1.80
2018-12-05T17:30:43.338Z,1.80
2018-12-05T17:33:19.557Z,1.90
2018-12-05T17:38:56.610Z,1.80
2018-12-05T17:41:26.493Z,1.80
2018-12-05T17:43:55.337Z,1.80
2018-12-05T17:46:30.898Z,1.80
2018-12-05T17:49:00.709Z,1.80
2018-12-05T17:51:31.506Z,1.80
2018-12-05T17:54:00.374Z,1.80
2018-12-05T17:56:29.210Z,1.80
2018-12-05T17:58:58.169Z,1.80
2018-12-05T18:01:28.946Z,1.70
2018-12-05T18:04:03.673Z,1.80
2018-12-05T18:06:38.318Z,1.70
2018-12-05T18:09:12.318Z,1.70
2018-12-05T18:11:47.176Z,1.60
2018-12-05T18:14:19.638Z,1.60
2018-12-05T18:16:54.386Z,1.60
2018-12-05T18:19:29.823Z,1.60
2018-12-05T18:21:59.566Z,1.60
2018-12-05T18:24:30.358Z,1.60
2018-12-05T18:27:07.725Z,1.60
2018-12-05T18:29:36.498Z,1.60
2018-12-05T18:32:05.359Z,1.60
2018-12-05T18:34:35.118Z,1.70
2018-12-05T18:37:04.015Z,1.70
2018-12-05T18:39:33.841Z,1.70
2018-12-05T18:42:04.610Z,1.80
2018-12-05T18:44:33.433Z,1.90
2018-12-05T18:47:07.649Z,1.90
2018-12-05T18:49:36.526Z,1.90
2018-12-05T18:52:09.218Z,1.90
2018-12-05T18:54:41.773Z,1.90
2018-12-05T18:57:19.258Z,1.90
2018-12-05T18:59:51.337Z,1.80
2018-12-05T19:02:27.681Z,1.70
2018-12-05T19:04:57.405Z,1.70
2018-12-05T19:07:26.185Z,1.60
2018-12-05T19:10:09.746Z,1.60
2018-12-05T19:12:42.833Z,1.50
2018-12-05T19:15:16.477Z,1.50
2018-12-05T19:17:50.185Z,1.50
2018-12-05T19:20:20.049Z,1.50
2018-12-05T19:22:49.848Z,1.60
2018-12-05T19:25:30.995Z,1.60
2018-12-05T19:28:00.697Z,1.60
2018-12-05T19:30:29.521Z,1.60
2018-12-05T19:33:00.242Z,1.50
2018-12-05T19:35:29.995Z,1.60
2018-12-05T19:37:58.861Z,1.60
2018-12-05T19:40:38.561Z,1.50
2018-12-05T19:43:19.245Z,1.50
2018-12-05T19:45:48.093Z,1.40
2018-12-05T19:48:16.883Z,1.40
2018-12-05T19:50:47.673Z,1.40
2018-12-05T19:53:16.469Z,1.40
2018-12-05T19:55:55.205Z,1.30
2018-12-05T19:58:34.853Z,1.30
2018-12-05T20:01:04.717Z,1.40
2018-12-05T20:03:34.556Z,1.40
2018-12-05T20:06:03.842Z,1.40
2018-12-05T20:08:32.717Z,1.50
2018-12-05T20:11:01.585Z,1.50
2018-12-05T20:13:33.233Z,1.50
2018-12-05T20:16:11.946Z,1.60
2018-12-05T20:18:41.751Z,1.60
2018-12-05T20:21:14.497Z,1.60
2018-12-05T20:23:44.529Z,1.60
2018-12-05T20:26:31.345Z,1.70
2018-12-05T20:29:01.182Z,1.70
2018-12-05T20:31:29.989Z,1.80
2018-12-05T20:34:02.158Z,1.80
2018-12-05T20:36:31.017Z,1.80
2018-12-05T20:39:01.825Z,1.80
2018-12-05T20:41:33.460Z,1.90
2018-12-05T20:44:02.433Z,1.90
2018-12-05T20:46:36.154Z,2.00
2018-12-05T20:49:09.734Z,2.00
2018-12-05T20:51:38.620Z,2.00
2018-12-05T20:54:07.525Z,2.00
2018-12-05T20:56:36.405Z,2.00
2018-12-05T20:59:05.181Z,2.10
2018-12-05T21:01:39.467Z,2.10
2018-12-05T21:04:09.281Z,2.10
2018-12-05T21:06:38.066Z,2.00
2018-12-05T21:09:08.700Z,2.00
2018-12-05T21:11:39.343Z,1.90
2018-12-05T21:14:09.103Z,1.90
2018-12-05T21:16:39.826Z,1.80
2018-12-05T21:19:13.473Z,1.80
2018-12-05T21:21:42.342Z,1.70
2018-12-05T21:24:24.515Z,1.70
2018-12-05T21:26:57.794Z,1.70
2018-12-05T21:29:32.365Z,1.70
2018-12-05T21:32:02.146Z,1.80
2018-12-05T21:34:30.942Z,1.80
2018-12-05T21:37:01.714Z,1.90
2018-12-05T21:39:30.586Z,1.90
2018-12-05T21:42:07.289Z,1.90
2018-12-05T21:44:36.726Z,1.90
2018-12-05T21:47:16.054Z,1.90
2018-12-05T21:49:47.990Z,1.90
2018-12-05T21:52:32.026Z,1.90
2018-12-05T21:55:00.850Z,1.90
2018-12-05T21:57:29.718Z,2.00
2018-12-05T21:59:58.542Z,2.00
2018-12-05T22:02:46.426Z,2.10
2018-12-05T22:05:33.230Z,2.10
2018-12-05T22:08:04.166Z,2.10
2018-12-05T22:10:33.988Z,2.10
2018-12-05T22:13:28.309Z,2.10
2018-12-05T22:16:05.546Z,2.10
2018-12-05T22:18:39.310Z,2.10
2018-12-05T22:21:12.118Z,2.10
2018-12-05T22:23:41.226Z,2.10
2018-12-05T22:26:17.127Z,2.10
2018-12-05T22:28:45.990Z,2.10
2018-12-05T22:31:14.906Z,2.10
2018-12-05T22:33:43.734Z,2.20
2018-12-05T22:36:12.526Z,2.20
2018-12-05T22:38:41.349Z,2.10
2018-12-05T22:41:16.120Z,2.10
2018-12-05T22:43:50.047Z,2.10
2018-12-05T22:46:19.890Z,2.10
2018-12-05T22:48:52.758Z,2.10
2018-12-05T22:51:21.542Z,2.10
2018-12-05T22:53:51.242Z,2.10
2018-12-05T22:56:21.919Z,2.20
2018-12-05T22:58:56.458Z,2.20
2018-12-05T23:01:39.197Z,2.20
2018-12-05T23:04:08.101Z,2.20
2018-12-05T23:06:38.503Z,2.20
2018-12-05T23:09:09.293Z,2.20
2018-12-05T23:11:44.602Z,2.20
2018-12-05T23:14:16.583Z,2.10
2018-12-05T23:16:47.422Z,2.20
2018-12-05T23:19:21.075Z,2.20
2018-12-05T23:21:51.854Z,2.20
2018-12-05T23:24:38.811Z,2.20
2018-12-05T23:27:08.574Z,2.10
2018-12-05T23:29:41.655Z,2.10
2018-12-05T23:32:11.490Z,2.10
2018-12-05T23:34:40.318Z,2.20
2018-12-05T23:37:11.078Z,2.20
2018-12-05T23:39:45.383Z,2.10
2018-12-05T23:42:18.498Z,2.10
2018-12-05T23:44:58.898Z,2.10
2018-12-05T23:47:33.698Z,2.10
2018-12-05T23:50:05.314Z,2.10
2018-12-05T23:52:35.025Z,2.10
2018-12-05T23:55:04.256Z,2.10
2018-12-05T23:57:33.122Z,2.10
